Time;durP1;ratioP1;P1;durP2;ratioP2;P2;SDS_P1;SDS_P2;PMS_P1;PMS_P2;Temp;Humidity;BMP_temperature;BMP_pressure;BME280_temperature;BME280_humidity;BME280_pressure;Samples;Min_cycle;Max_cycle;Signal;HPM_P1;HPM_P2
2023/09/29 00:01:38;;;;;;;2.78;1.20;;;20.10;85.60;;;;;;5071885;28;20034;-80
2023/09/29 00:04:05;;;;;;;2.37;1.20;;;20.10;85.60;;;;;;5078370;28;20032;-80
2023/09/29 00:06:35;;;;;;;3.05;1.35;;;20.10;85.80;;;;;;5085711;28;20035;-80
2023/09/29 00:09:02;;;;;;;2.78;1.30;;;20.10;85.70;;;;;;5087695;28;20521;-80
2023/09/29 00:11:31;;;;;;;2.28;1.15;;;20.10;85.80;;;;;;5067446;28;20024;-80
2023/09/29 00:13:57;;;;;;;3.60;1.50;;;20.10;85.90;;;;;;5078083;28;20296;-80
2023/09/29 00:16:22;;;;;;;3.33;1.50;;;20.20;85.90;;;;;;5084824;28;20432;-80
2023/09/29 00:18:48;;;;;;;3.03;1.30;;;20.10;85.80;;;;;;5081941;28;20025;-80
2023/09/29 00:21:14;;;;;;;2.33;1.38;;;20.20;85.90;;;;;;5082484;28;20130;-80
2023/09/29 00:23:39;;;;;;;2.92;1.20;;;20.20;86.00;;;;;;5086135;28;20059;-80
2023/09/29 00:26:06;;;;;;;3.47;1.20;;;20.20;86.00;;;;;;5084063;28;20047;-80
2023/09/29 00:28:32;;;;;;;2.38;1.17;;;20.20;85.90;;;;;;5061021;28;20456;-80
2023/09/29 00:30:58;;;;;;;1.83;1.10;;;20.10;85.90;;;;;;5084636;28;20112;-80
2023/09/29 00:33:24;;;;;;;1.77;1.10;;;20.20;85.90;;;;;;5087219;28;20032;-80
2023/09/29 00:35:49;;;;;;;2.38;1.13;;;20.20;86.00;;;;;;5082250;28;20035;-80
2023/09/29 00:38:15;;;;;;;2.70;1.07;;;20.20;86.00;;;;;;5083584;28;20040;-80
2023/09/29 00:40:41;;;;;;;3.25;1.52;;;20.20;85.90;;;;;;5078037;28;20394;-80
2023/09/29 00:43:08;;;;;;;2.93;1.20;;;20.10;85.90;;;;;;5087575;28;20086;-79
2023/09/29 00:45:35;;;;;;;2.33;1.20;;;20.10;86.00;;;;;;5082413;28;20383;-80
2023/09/29 00:48:10;;;;;;;2.55;1.20;;;20.20;86.00;;;;;;5088035;28;20020;-80
2023/09/29 00:50:38;;;;;;;1.88;1.00;;;20.10;86.00;;;;;;5076590;28;20036;-80
2023/09/29 00:53:11;;;;;;;1.63;1.00;;;20.20;86.10;;;;;;5080869;28;20494;-80
2023/09/29 00:55:41;;;;;;;2.07;1.10;;;20.20;86.20;;;;;;5086579;28;20398;-79
2023/09/29 00:58:08;;;;;;;3.30;1.10;;;20.20;86.10;;;;;;5081012;28;20032;-80
2023/09/29 01:00:37;;;;;;;1.27;0.95;;;20.20;86.10;;;;;;5077175;28;20032;-79
2023/09/29 01:03:13;;;;;;;2.20;1.15;;;20.20;86.10;;;;;;5065791;22;20618;-16
2023/09/29 01:05:43;;;;;;;1.77;0.93;;;20.20;87.00;;;;;;5025158;27;20271;-16
2023/09/29 01:08:12;;;;;;;3.33;1.07;;;20.20;86.20;;;;;;5001782;28;20398;-16
2023/09/29 01:10:39;;;;;;;2.28;0.90;;;20.20;86.30;;;;;;5003253;28;20114;-16
2023/09/29 01:13:06;;;;;;;1.67;1.02;;;20.20;86.20;;;;;;5073764;28;20022;-16
2023/09/29 01:15:36;;;;;;;1.50;1.00;;;20.20;86.30;;;;;;4989455;28;20092;-16
2023/09/29 01:18:02;;;;;;;2.20;1.10;;;20.20;86.20;;;;;;5013431;28;20014;-16
2023/09/29 01:20:31;;;;;;;2.30;1.00;;;20.20;86.10;;;;;;5008340;28;20025;-16
2023/09/29 01:23:00;;;;;;;1.90;1.00;;;20.20;86.10;;;;;;4994389;28;20025;-16
2023/09/29 01:25:26;;;;;;;4.20;1.08;;;20.30;88.00;;;;;;4984489;28;20026;-16
2023/09/29 01:27:52;;;;;;;1.63;0.90;;;20.20;86.10;;;;;;5001356;28;20045;-17
2023/09/29 01:30:21;;;;;;;2.28;1.02;;;20.20;86.10;;;;;;4997545;28;20501;-16
2023/09/29 01:32:48;;;;;;;1.60;0.97;;;20.20;86.00;;;;;;4996537;28;20670;-17
2023/09/29 01:35:17;;;;;;;2.05;0.98;;;20.20;86.10;;;;;;5005696;28;20036;-17
2023/09/29 01:37:48;;;;;;;1.23;0.90;;;20.20;86.00;;;;;;5007015;28;20241;-16
2023/09/29 01:40:15;;;;;;;1.70;0.88;;;20.20;86.10;;;;;;5000430;28;20024;-17
2023/09/29 01:42:45;;;;;;;2.60;1.00;;;20.20;86.00;;;;;;5005347;28;20155;-16
2023/09/29 01:45:15;;;;;;;1.70;0.90;;;20.20;86.20;;;;;;4998945;28;20022;-17
2023/09/29 01:47:45;;;;;;;2.35;1.00;;;20.20;86.20;;;;;;5066244;27;20107;-16
2023/09/29 01:50:16;;;;;;;1.75;0.80;;;20.20;86.20;;;;;;5019223;28;20044;-17
2023/09/29 01:52:46;;;;;;;1.60;0.80;;;20.30;86.40;;;;;;5024252;28;20229;-16
2023/09/29 01:55:15;;;;;;;1.38;0.80;;;20.30;86.50;;;;;;5000063;28;20399;-16
2023/09/29 01:57:42;;;;;;;1.37;0.80;;;20.30;86.30;;;;;;5001595;28;20114;-16
2023/09/29 02:00:15;;;;;;;1.58;0.90;;;20.30;86.20;;;;;;5011232;28;20519;-16
2023/09/29 02:02:43;;;;;;;1.15;0.60;;;20.30;86.30;;;;;;4963060;28;20708;-17
2023/09/29 02:05:11;;;;;;;1.88;0.90;;;20.30;86.30;;;;;;5077630;28;20019;-17
2023/09/29 02:07:37;;;;;;;2.15;0.90;;;20.30;86.20;;;;;;4990382;28;20544;-17
2023/09/29 02:10:03;;;;;;;3.47;0.90;;;20.40;86.30;;;;;;4993592;28;20041;-17
2023/09/29 02:12:32;;;;;;;1.75;0.88;;;20.40;86.30;;;;;;4977410;28;20049;-16
2023/09/29 02:14:58;;;;;;;1.48;0.80;;;20.40;86.30;;;;;;5074856;28;20046;-17
2023/09/29 02:17:25;;;;;;;2.45;0.80;;;20.40;86.30;;;;;;4972049;28;20606;-16
2023/09/29 02:19:52;;;;;;;2.10;0.88;;;20.40;86.30;;;;;;4981825;28;20117;-17
2023/09/29 02:22:22;;;;;;;1.90;1.00;;;20.40;86.40;;;;;;4997456;28;20030;-16
2023/09/29 02:24:48;;;;;;;2.22;1.00;;;20.40;86.40;;;;;;4996416;28;20022;-16
2023/09/29 02:27:16;;;;;;;2.33;0.80;;;20.40;86.40;;;;;;4989557;28;20103;-17
2023/09/29 02:29:42;;;;;;;1.00;0.82;;;20.40;86.40;;;;;;4986537;28;20247;-17
2023/09/29 02:32:08;;;;;;;1.40;0.87;;;20.40;86.40;;;;;;4983964;28;20041;-16
2023/09/29 02:34:33;;;;;;;1.40;0.90;;;20.40;86.70;;;;;;4970729;28;20034;-16
2023/09/29 02:36:59;;;;;;;1.73;0.90;;;20.40;86.50;;;;;;4996411;28;20014;-18
2023/09/29 02:39:24;;;;;;;2.67;1.07;;;20.40;86.40;;;;;;5076536;28;20022;-16
2023/09/29 02:41:51;;;;;;;2.47;0.80;;;20.40;86.60;;;;;;4998676;28;20553;-16
2023/09/29 02:44:17;;;;;;;1.70;1.02;;;20.40;86.60;;;;;;4989396;28;20033;-16
2023/09/29 02:46:42;;;;;;;2.70;0.98;;;20.40;86.80;;;;;;4984254;28;20040;-17
2023/09/29 02:49:09;;;;;;;1.10;0.80;;;20.40;86.70;;;;;;4984468;28;20042;-16
2023/09/29 02:51:35;;;;;;;1.67;0.80;;;20.40;86.80;;;;;;4973951;28;20034;-16
2023/09/29 02:54:03;;;;;;;1.65;0.82;;;20.40;86.80;;;;;;4981665;28;20551;-16
2023/09/29 02:56:30;;;;;;;1.90;0.90;;;20.40;86.90;;;;;;4997098;28;20591;-16
2023/09/29 02:58:56;;;;;;;2.33;1.00;;;20.50;87.10;;;;;;5064390;27;20022;-17
2023/09/29 03:01:22;;;;;;;1.38;0.90;;;20.40;87.10;;;;;;4997976;28;20086;-16
2023/09/29 03:03:48;;;;;;;1.50;0.80;;;20.50;87.10;;;;;;4986533;28;20435;-16
2023/09/29 03:06:23;;;;;;;3.10;0.90;;;20.50;87.10;;;;;;4985768;28;20091;-17
2023/09/29 03:08:54;;;;;;;2.00;0.80;;;20.50;87.20;;;;;;4997054;28;20034;-16
2023/09/29 03:11:21;;;;;;;1.33;0.80;;;20.50;87.30;;;;;;4996106;28;20030;-16
2023/09/29 03:13:47;;;;;;;1.40;0.90;;;20.50;87.30;;;;;;4990400;28;20110;-16
2023/09/29 03:16:13;;;;;;;2.13;0.98;;;20.60;87.30;;;;;;4990828;28;20037;-16
2023/09/29 03:18:39;;;;;;;1.50;0.90;;;20.60;87.30;;;;;;4983755;28;20042;-16
2023/09/29 03:21:07;;;;;;;2.20;1.00;;;20.60;87.40;;;;;;5001051;28;20018;-15
2023/09/29 03:23:36;;;;;;;1.58;0.82;;;20.60;87.40;;;;;;4973660;28;20041;-15
2023/09/29 03:26:05;;;;;;;1.20;0.90;;;20.60;87.70;;;;;;4993537;28;20111;-15
2023/09/29 03:28:35;;;;;;;2.78;1.00;;;20.60;87.70;;;;;;4973693;28;20058;-15
2023/09/29 03:31:06;;;;;;;1.75;0.93;;;20.60;87.60;;;;;;4992964;28;20026;-15
2023/09/29 03:33:32;;;;;;;1.83;1.00;;;20.60;87.60;;;;;;5004490;28;20034;-15
2023/09/29 03:35:58;;;;;;;1.50;0.90;;;20.60;87.70;;;;;;4986001;28;20028;-15
2023/09/29 03:38:25;;;;;;;1.30;0.90;;;20.60;87.70;;;;;;4968557;28;20030;-15
2023/09/29 03:40:52;;;;;;;1.77;0.90;;;20.60;87.80;;;;;;5009935;28;20026;-15
2023/09/29 03:43:19;;;;;;;1.33;0.90;;;20.60;87.90;;;;;;4984716;28;20037;-15
2023/09/29 03:45:46;;;;;;;1.38;0.93;;;20.60;88.00;;;;;;4993297;28;20369;-15
2023/09/29 03:48:15;;;;;;;1.83;1.00;;;20.70;88.20;;;;;;4992341;28;20030;-15
2023/09/29 03:50:41;;;;;;;2.22;0.80;;;20.60;88.30;;;;;;4984124;28;20041;-15
2023/09/29 03:53:07;;;;;;;1.65;0.90;;;20.60;88.30;;;;;;4972756;28;20666;-16
2023/09/29 03:55:33;;;;;;;1.38;0.85;;;20.60;88.50;;;;;;4991608;28;20021;-15
2023/09/29 03:58:00;;;;;;;2.55;1.00;;;20.70;88.50;;;;;;4990275;28;22031;-15
2023/09/29 04:00:26;;;;;;;1.53;0.90;;;20.70;88.60;;;;;;5096246;27;20025;-15
2023/09/29 04:02:53;;;;;;;1.52;0.90;;;20.70;88.80;;;;;;4997794;28;20037;-16
2023/09/29 04:05:19;;;;;;;1.02;0.73;;;20.80;89.00;;;;;;4986737;28;20094;-15
2023/09/29 04:07:46;;;;;;;1.40;0.90;;;20.80;89.10;;;;;;4986174;28;20071;-15
2023/09/29 04:10:13;;;;;;;1.10;0.80;;;20.80;89.10;;;;;;4972929;28;20258;-15
2023/09/29 04:12:42;;;;;;;2.13;1.00;;;20.80;89.10;;;;;;4996804;28;20645;-15
2023/09/29 04:15:08;;;;;;;1.45;1.10;;;20.80;89.30;;;;;;4989375;28;20536;-15
2023/09/29 04:17:37;;;;;;;2.67;1.00;;;20.90;89.40;;;;;;4995999;28;20037;-15
2023/09/29 04:20:05;;;;;;;1.42;0.90;;;20.90;89.50;;;;;;4981876;28;20306;-15
2023/09/29 04:22:32;;;;;;;1.20;0.90;;;21.00;89.50;;;;;;5001154;28;20022;-15
2023/09/29 04:24:57;;;;;;;1.00;0.80;;;21.00;89.50;;;;;;5017342;28;20033;-16
2023/09/29 04:27:23;;;;;;;1.20;0.90;;;21.00;89.60;;;;;;4996581;28;20025;-15
2023/09/29 04:29:50;;;;;;;1.75;1.00;;;21.00;89.50;;;;;;4990715;28;20041;-15
2023/09/29 04:32:17;;;;;;;1.38;0.85;;;21.00;89.60;;;;;;4985061;28;20561;-16
2023/09/29 04:34:43;;;;;;;2.00;1.00;;;21.10;89.80;;;;;;4995630;28;20108;-15
2023/09/29 04:37:09;;;;;;;1.73;0.90;;;21.10;89.80;;;;;;4966638;28;20334;-15
2023/09/29 04:39:35;;;;;;;2.17;1.02;;;21.10;89.80;;;;;;4997020;28;20377;-15
2023/09/29 04:42:02;;;;;;;1.80;1.00;;;21.10;89.90;;;;;;4977938;28;20029;-15
2023/09/29 04:44:28;;;;;;;1.92;1.10;;;21.20;90.00;;;;;;4997576;28;20487;-15
2023/09/29 04:46:54;;;;;;;1.00;0.80;;;21.20;90.00;;;;;;4998564;27;20042;-15
2023/09/29 04:49:20;;;;;;;1.70;0.90;;;21.20;90.00;;;;;;4994269;28;20018;-15
2023/09/29 04:51:46;;;;;;;1.35;0.90;;;21.20;90.00;;;;;;4986100;28;20034;-16
2023/09/29 04:54:11;;;;;;;1.10;0.67;;;21.30;90.10;;;;;;4995629;28;20265;-15
2023/09/29 04:56:38;;;;;;;1.30;0.90;;;21.30;90.00;;;;;;4971753;28;20347;-15
2023/09/29 04:59:05;;;;;;;1.40;0.90;;;21.30;90.10;;;;;;4978276;28;20026;-16
2023/09/29 05:01:31;;;;;;;1.60;0.90;;;21.30;90.10;;;;;;4974087;28;20625;-15
2023/09/29 05:03:57;;;;;;;1.23;0.90;;;21.30;90.10;;;;;;4983802;28;20034;-15
2023/09/29 05:06:24;;;;;;;2.37;1.33;;;21.30;90.10;;;;;;5001692;28;20026;-15
2023/09/29 05:08:50;;;;;;;2.55;0.98;;;21.40;90.10;;;;;;4971500;28;20065;-15
2023/09/29 05:11:25;;;;;;;1.30;1.08;;;21.40;90.20;;;;;;4986566;28;20117;-15
2023/09/29 05:13:52;;;;;;;1.85;0.90;;;21.40;90.50;;;;;;4986304;28;20077;-15
2023/09/29 05:16:18;;;;;;;1.73;1.00;;;22.10;91.00;;;;;;5026035;28;20034;-15
2023/09/29 05:18:44;;;;;;;1.65;1.00;;;21.40;90.60;;;;;;4983071;28;20396;-15
2023/09/29 05:21:13;;;;;;;2.65;0.90;;;21.40;90.20;;;;;;4996043;28;20231;-16
2023/09/29 05:23:39;;;;;;;1.55;0.80;;;21.40;90.30;;;;;;4987239;28;20050;-15
2023/09/29 05:26:08;;;;;;;1.67;1.00;;;21.40;90.10;;;;;;5024016;28;20025;-15
2023/09/29 05:28:35;;;;;;;1.20;0.90;;;21.50;90.30;;;;;;4967760;28;20060;-15
2023/09/29 05:31:03;;;;;;;2.55;1.02;;;21.40;90.20;;;;;;5008263;28;20192;-15
2023/09/29 05:33:29;;;;;;;1.75;1.05;;;21.40;90.20;;;;;;4984020;28;20526;-15
2023/09/29 05:35:55;;;;;;;1.33;0.90;;;21.40;90.20;;;;;;4986775;28;20227;-15
2023/09/29 05:38:21;;;;;;;1.10;0.90;;;21.40;90.20;;;;;;4983791;28;20555;-15
2023/09/29 05:40:49;;;;;;;1.25;1.00;;;21.40;90.20;;;;;;4975250;28;20111;-15
2023/09/29 05:43:16;;;;;;;1.75;1.20;;;21.40;90.20;;;;;;4973498;28;20026;-15
2023/09/29 05:45:42;;;;;;;1.77;1.02;;;21.30;90.20;;;;;;4986455;28;20067;-15
2023/09/29 05:48:08;;;;;;;1.73;1.00;;;21.30;90.30;;;;;;4997505;28;20246;-15
2023/09/29 05:50:34;;;;;;;3.10;1.10;;;21.30;90.20;;;;;;4969638;28;20118;-16
2023/09/29 05:53:00;;;;;;;1.63;0.80;;;21.30;90.30;;;;;;4994967;28;20046;-15
2023/09/29 05:55:26;;;;;;;2.13;0.90;;;21.30;90.30;;;;;;4969719;28;20041;-15
2023/09/29 05:57:52;;;;;;;1.92;0.80;;;21.30;90.40;;;;;;4992485;28;20547;-15
2023/09/29 06:00:19;;;;;;;1.13;0.90;;;21.30;90.40;;;;;;4972499;28;20029;-15
2023/09/29 06:02:46;;;;;;;1.92;1.00;;;21.30;90.50;;;;;;4995806;28;20551;-15
2023/09/29 06:05:12;;;;;;;1.52;0.90;;;21.30;90.50;;;;;;5004225;28;20377;-16
2023/09/29 06:07:39;;;;;;;1.30;0.83;;;21.30;90.50;;;;;;4990448;28;20054;-14
2023/09/29 06:10:06;;;;;;;1.75;1.02;;;21.40;90.60;;;;;;4985145;28;20034;-15
2023/09/29 06:12:32;;;;;;;1.70;1.10;;;21.40;90.60;;;;;;4985735;28;20034;-15
2023/09/29 06:14:58;;;;;;;1.42;1.00;;;21.40;90.60;;;;;;4964030;28;20034;-15
2023/09/29 06:17:24;;;;;;;1.53;1.00;;;21.40;90.60;;;;;;4986718;28;20030;-15
2023/09/29 06:19:50;;;;;;;1.92;1.20;;;21.40;90.60;;;;;;4971321;28;20693;-16
2023/09/29 06:22:17;;;;;;;1.65;0.90;;;21.40;90.60;;;;;;4989834;28;20539;-15
2023/09/29 06:24:44;;;;;;;1.20;1.00;;;21.50;90.70;;;;;;4970445;28;20284;-15
2023/09/29 06:27:10;;;;;;;1.38;0.90;;;21.50;90.70;;;;;;4979573;28;20038;-15
2023/09/29 06:29:36;;;;;;;1.73;1.20;;;21.50;90.70;;;;;;4956623;28;20216;-15
2023/09/29 06:32:01;;;;;;;1.50;1.10;;;21.50;91.10;;;;;;4996800;28;20038;-15
2023/09/29 06:34:27;;;;;;;2.53;1.00;;;21.50;90.80;;;;;;5074781;28;20029;-15
2023/09/29 06:36:53;;;;;;;1.25;0.93;;;21.60;90.90;;;;;;4991444;28;20045;-15
2023/09/29 06:39:19;;;;;;;1.37;1.10;;;21.60;90.90;;;;;;4999371;28;20087;-15
2023/09/29 06:41:44;;;;;;;1.57;1.00;;;21.70;90.80;;;;;;5050671;28;20619;-15
2023/09/29 06:44:11;;;;;;;1.65;1.00;;;21.70;90.80;;;;;;5003572;28;20025;-15
2023/09/29 06:46:36;;;;;;;1.20;1.10;;;21.70;90.90;;;;;;4966700;28;20029;-15
2023/09/29 06:49:02;;;;;;;1.45;0.82;;;21.70;90.90;;;;;;4995945;28;20481;-17
2023/09/29 06:51:28;;;;;;;2.28;1.15;;;21.70;90.90;;;;;;4965440;28;20087;-16
2023/09/29 06:53:53;;;;;;;2.70;1.00;;;22.60;91.70;;;;;;4997840;28;20033;-17
2023/09/29 06:56:19;;;;;;;3.63;1.10;;;21.80;90.90;;;;;;4991869;28;20055;-16
2023/09/29 06:58:46;;;;;;;2.00;1.13;;;21.80;91.20;;;;;;4990746;28;20243;-16
2023/09/29 07:01:12;;;;;;;2.22;1.13;;;21.90;90.90;;;;;;4965982;28;20285;-16
2023/09/29 07:03:38;;;;;;;1.40;1.05;;;21.90;91.00;;;;;;4977536;28;20065;-16
2023/09/29 07:06:04;;;;;;;2.13;1.20;;;21.90;91.00;;;;;;4982704;28;20403;-16
2023/09/29 07:08:30;;;;;;;1.40;1.00;;;21.90;91.00;;;;;;4989720;28;20071;-17
2023/09/29 07:10:56;;;;;;;1.50;1.10;;;22.00;91.10;;;;;;4994415;28;20102;-16
2023/09/29 07:13:22;;;;;;;2.15;1.10;;;22.00;91.10;;;;;;4982674;28;20043;-16
2023/09/29 07:15:48;;;;;;;1.20;1.00;;;22.00;91.20;;;;;;5054576;27;20087;-16
2023/09/29 07:18:16;;;;;;;1.65;1.05;;;22.50;91.70;;;;;;4988109;28;20207;-16
2023/09/29 07:20:45;;;;;;;2.38;1.08;;;22.20;91.30;;;;;;4992498;28;20030;-16
2023/09/29 07:23:11;;;;;;;1.77;1.00;;;22.30;91.40;;;;;;4963705;28;20040;-17
2023/09/29 07:25:38;;;;;;;1.73;1.10;;;22.40;91.30;;;;;;4995267;28;20018;-17
2023/09/29 07:28:15;;;;;;;2.25;1.27;;;22.50;91.30;;;;;;4988236;28;20096;-16
2023/09/29 07:30:41;;;;;;;2.67;1.02;;;22.50;91.30;;;;;;4974362;28;20042;-16
2023/09/29 07:33:09;;;;;;;2.17;1.20;;;22.60;91.20;;;;;;4984674;28;20632;-16
2023/09/29 07:35:35;;;;;;;3.07;1.33;;;22.70;91.20;;;;;;4998007;28;20042;-17
2023/09/29 07:38:00;;;;;;;2.97;1.30;;;22.80;91.30;;;;;;4980348;28;20527;-16
2023/09/29 07:40:26;;;;;;;1.90;1.27;;;22.80;91.40;;;;;;5097163;27;20033;-17
2023/09/29 07:42:52;;;;;;;2.28;1.30;;;23.00;91.50;;;;;;4965353;28;20042;-16
2023/09/29 07:45:22;;;;;;;2.17;1.20;;;23.10;91.60;;;;;;4994999;28;20057;-17
2023/09/29 07:47:47;;;;;;;2.58;1.15;;;23.20;91.50;;;;;;4964103;28;20442;-16
2023/09/29 07:50:13;;;;;;;2.37;1.30;;;23.40;91.50;;;;;;4996060;28;20090;-17
2023/09/29 07:52:40;;;;;;;2.80;1.40;;;23.50;91.70;;;;;;4988585;28;20033;-16
2023/09/29 07:55:07;;;;;;;4.07;1.23;;;23.70;91.80;;;;;;4985618;28;20037;-16
2023/09/29 07:57:33;;;;;;;2.40;1.30;;;23.90;91.90;;;;;;5011687;28;20050;-16
2023/09/29 07:59:58;;;;;;;2.30;1.20;;;24.10;91.70;;;;;;4980056;28;20231;-16
2023/09/29 08:02:25;;;;;;;2.25;1.40;;;24.30;91.50;;;;;;4980432;28;20048;-17
2023/09/29 08:04:51;;;;;;;2.50;1.40;;;24.50;91.30;;;;;;4950634;28;20037;-17
2023/09/29 08:07:17;;;;;;;3.90;1.77;;;24.60;91.00;;;;;;4998581;28;20396;-16
2023/09/29 08:09:44;;;;;;;2.20;1.27;;;24.70;90.70;;;;;;4978351;28;20037;-16
2023/09/29 08:12:09;;;;;;;2.97;1.58;;;24.80;90.80;;;;;;5004620;28;20105;-16
2023/09/29 08:14:35;;;;;;;3.80;1.60;;;24.80;90.40;;;;;;4993560;28;20108;-16
2023/09/29 08:17:02;;;;;;;3.23;1.30;;;24.90;90.20;;;;;;4971987;28;20436;-16
2023/09/29 08:19:28;;;;;;;3.22;1.23;;;24.90;90.20;;;;;;4949692;28;20432;-16
2023/09/29 08:21:54;;;;;;;2.50;1.50;;;24.90;90.10;;;;;;4993406;28;20563;-16
2023/09/29 08:24:20;;;;;;;2.40;1.05;;;25.00;90.10;;;;;;4987810;28;20026;-16
2023/09/29 08:26:46;;;;;;;2.97;1.40;;;25.00;90.20;;;;;;4992030;28;20067;-16
2023/09/29 08:29:15;;;;;;;2.65;1.40;;;25.00;90.10;;;;;;5062002;28;20041;-17
2023/09/29 08:31:42;;;;;;;2.40;1.10;;;25.00;89.90;;;;;;4983055;28;21042;-16
2023/09/29 08:34:08;;;;;;;3.60;1.40;;;25.10;89.50;;;;;;4975070;28;20030;-16
2023/09/29 08:36:33;;;;;;;3.58;1.48;;;25.00;89.00;;;;;;5009171;28;20042;-16
2023/09/29 08:39:00;;;;;;;2.83;1.30;;;25.00;88.60;;;;;;4994392;28;20354;-16
2023/09/29 08:41:28;;;;;;;2.67;1.15;;;25.00;88.30;;;;;;4986214;28;20033;-16
2023/09/29 08:43:54;;;;;;;3.47;1.20;;;24.90;88.10;;;;;;4993656;28;20227;-17
2023/09/29 08:46:23;;;;;;;2.92;1.20;;;24.80;87.80;;;;;;4984302;28;20109;-17
2023/09/29 08:48:49;;;;;;;3.93;1.17;;;24.70;87.70;;;;;;4972177;28;20048;-17
2023/09/29 08:51:17;;;;;;;3.22;1.35;;;24.70;87.70;;;;;;4994264;28;20041;-16
2023/09/29 08:53:44;;;;;;;3.03;1.33;;;24.50;87.70;;;;;;4992304;28;20056;-17
2023/09/29 08:56:16;;;;;;;3.78;1.33;;;24.50;87.80;;;;;;4988119;28;20403;-16
2023/09/29 08:58:42;;;;;;;3.03;1.25;;;24.40;87.60;;;;;;4991245;28;20263;-16
2023/09/29 09:01:08;;;;;;;3.47;1.30;;;24.30;87.60;;;;;;4995877;28;20034;-17
2023/09/29 09:03:35;;;;;;;3.15;1.30;;;24.20;87.60;;;;;;4978187;28;20125;-16
2023/09/29 09:06:01;;;;;;;2.00;1.08;;;24.10;87.70;;;;;;4998288;28;20267;-16
2023/09/29 09:08:27;;;;;;;3.28;1.30;;;24.10;87.60;;;;;;4994461;28;20404;-17
2023/09/29 09:11:00;;;;;;;1.98;1.27;;;24.00;87.80;;;;;;4983334;28;20026;-16
2023/09/29 09:13:26;;;;;;;2.80;1.20;;;23.90;88.20;;;;;;4997768;28;20091;-15
2023/09/29 09:16:00;;;;;;;3.22;1.40;;;23.90;88.50;;;;;;4994574;28;20048;-15
2023/09/29 09:18:27;;;;;;;2.20;1.20;;;23.80;88.80;;;;;;4983799;28;20034;-15
2023/09/29 09:20:54;;;;;;;1.60;1.00;;;23.90;89.00;;;;;;4990452;28;20226;-15
2023/09/29 09:23:20;;;;;;;3.45;1.40;;;23.90;89.50;;;;;;4980481;28;20022;-15
2023/09/29 09:25:46;;;;;;;3.20;1.40;;;23.90;90.00;;;;;;4986693;28;20080;-15
2023/09/29 09:28:16;;;;;;;2.60;1.40;;;24.00;90.20;;;;;;5076067;28;20393;-15
2023/09/29 09:30:42;;;;;;;3.20;1.30;;;24.20;90.20;;;;;;4993747;28;20365;-16
2023/09/29 09:33:22;;;;;;;4.28;1.50;;;24.20;90.20;;;;;;4983030;28;20022;-15
2023/09/29 09:35:49;;;;;;;2.42;1.10;;;24.40;90.20;;;;;;4955054;28;20054;-15
2023/09/29 09:38:15;;;;;;;3.70;1.40;;;24.50;90.40;;;;;;4970343;28;20041;-15
2023/09/29 09:40:44;;;;;;;2.92;1.30;;;24.70;90.50;;;;;;4982712;28;20034;-15
2023/09/29 09:43:10;;;;;;;4.55;1.58;;;24.80;90.30;;;;;;4983754;28;20022;-15
2023/09/29 09:45:42;;;;;;;2.70;1.27;;;25.00;90.10;;;;;;5060328;28;20022;-15
2023/09/29 09:48:09;;;;;;;3.08;1.30;;;25.00;89.60;;;;;;4999414;28;20424;-15
2023/09/29 09:50:40;;;;;;;3.43;1.43;;;25.10;89.10;;;;;;4994644;28;20033;-15
2023/09/29 09:53:09;;;;;;;2.90;1.10;;;25.10;88.70;;;;;;4966697;28;20026;-15
2023/09/29 09:55:41;;;;;;;2.75;1.38;;;25.10;88.50;;;;;;4993575;28;20113;-15
2023/09/29 09:58:11;;;;;;;5.35;1.30;;;25.10;88.50;;;;;;4982559;28;20033;-15
2023/09/29 10:00:40;;;;;;;2.67;1.08;;;25.10;88.80;;;;;;5071841;28;20429;-15
2023/09/29 10:03:11;;;;;;;2.80;1.30;;;25.10;88.60;;;;;;4993128;28;20594;-15
2023/09/29 10:05:42;;;;;;;3.08;1.20;;;25.10;88.50;;;;;;4985717;28;20128;-15
2023/09/29 10:08:10;;;;;;;2.90;1.30;;;25.10;88.50;;;;;;4984935;28;20037;-15
2023/09/29 10:10:41;;;;;;;2.22;0.90;;;25.10;88.00;;;;;;4993213;28;20042;-15
2023/09/29 10:13:15;;;;;;;1.95;1.02;;;25.10;87.70;;;;;;4993289;28;20061;-15
2023/09/29 10:15:42;;;;;;;2.70;1.10;;;25.00;87.80;;;;;;4983234;28;20442;-15
2023/09/29 10:18:18;;;;;;;2.38;0.90;;;25.00;88.00;;;;;;4992216;28;20071;-15
2023/09/29 10:20:58;;;;;;;2.33;1.20;;;25.00;88.10;;;;;;5045897;28;20479;-15
2023/09/29 10:23:27;;;;;;;2.15;1.00;;;25.00;87.80;;;;;;4957951;28;20502;-16
2023/09/29 10:26:02;;;;;;;2.60;1.00;;;24.90;87.70;;;;;;4995574;28;20388;-15
2023/09/29 10:28:35;;;;;;;1.87;1.00;;;24.80;87.60;;;;;;4990510;28;20109;-15
2023/09/29 10:31:13;;;;;;;1.65;0.90;;;24.70;87.60;;;;;;4986009;28;20527;-15
2023/09/29 10:33:53;;;;;;;2.33;1.10;;;24.70;88.10;;;;;;4991626;28;20049;-15
2023/09/29 10:36:29;;;;;;;1.58;1.00;;;24.70;88.40;;;;;;4977598;28;20030;-16
2023/09/29 10:38:57;;;;;;;1.80;1.00;;;24.70;88.40;;;;;;4993091;28;20373;-15
2023/09/29 10:41:29;;;;;;;2.90;1.23;;;24.70;88.40;;;;;;4951233;28;20614;-15
2023/09/29 10:44:01;;;;;;;2.42;1.30;;;24.70;89.00;;;;;;4991912;28;20388;-15
2023/09/29 10:46:28;;;;;;;2.33;1.30;;;24.80;89.20;;;;;;4981235;28;20022;-15
2023/09/29 10:48:54;;;;;;;2.72;1.17;;;24.80;88.90;;;;;;4994093;28;20046;-15
2023/09/29 10:51:33;;;;;;;2.83;1.30;;;24.90;88.60;;;;;;4984833;28;20034;-16
2023/09/29 10:54:06;;;;;;;3.08;1.13;;;24.90;88.50;;;;;;4994594;28;20422;-15
2023/09/29 10:56:34;;;;;;;2.72;1.10;;;24.90;88.40;;;;;;4960572;28;20042;-15
2023/09/29 10:59:06;;;;;;;2.33;1.08;;;24.80;88.00;;;;;;4983284;28;20434;-15
2023/09/29 11:01:33;;;;;;;1.90;0.93;;;24.80;87.80;;;;;;4980389;28;21625;-15
2023/09/29 11:04:10;;;;;;;2.20;1.10;;;24.70;87.40;;;;;;4994494;28;20034;-15
2023/09/29 11:06:46;;;;;;;2.33;1.00;;;24.60;87.40;;;;;;4985162;28;20041;-15
2023/09/29 11:09:28;;;;;;;2.10;0.88;;;24.50;88.00;;;;;;4993391;28;20061;-15
2023/09/29 11:11:54;;;;;;;2.67;1.10;;;24.40;87.90;;;;;;4965122;28;20034;-15
2023/09/29 11:14:19;;;;;;;2.53;1.20;;;24.40;87.60;;;;;;4996674;28;20045;-15
2023/09/29 11:16:58;;;;;;;2.33;1.13;;;24.30;87.70;;;;;;4986690;28;20082;-15
2023/09/29 11:19:25;;;;;;;4.00;1.47;;;24.20;88.20;;;;;;4992879;28;20057;-16
2023/09/29 11:21:51;;;;;;;2.08;1.00;;;24.20;88.00;;;;;;4995912;28;20673;-15
2023/09/29 11:24:19;;;;;;;2.35;1.10;;;24.10;88.40;;;;;;4981105;28;20032;-15
2023/09/29 11:26:46;;;;;;;1.95;1.33;;;24.10;88.70;;;;;;4972219;28;20338;-15
2023/09/29 11:29:22;;;;;;;3.37;1.30;;;24.10;89.30;;;;;;4984270;28;20022;-16
2023/09/29 11:31:51;;;;;;;1.83;1.10;;;24.10;89.70;;;;;;4995333;28;20539;-16
2023/09/29 11:34:17;;;;;;;3.53;1.23;;;24.10;89.10;;;;;;4971399;28;20041;-16
2023/09/29 11:36:46;;;;;;;2.05;1.10;;;24.10;88.80;;;;;;4995517;28;20688;-16
2023/09/29 11:39:20;;;;;;;2.83;1.00;;;24.00;88.10;;;;;;4982839;28;20014;-16
2023/09/29 11:41:46;;;;;;;2.50;1.30;;;23.90;88.00;;;;;;4969238;28;20396;-18
2023/09/29 11:44:13;;;;;;;3.38;1.48;;;23.70;87.90;;;;;;4987663;28;20400;-17
2023/09/29 11:46:40;;;;;;;3.22;1.05;;;23.60;88.10;;;;;;4993705;28;20175;-17
2023/09/29 11:49:07;;;;;;;2.63;1.10;;;23.40;88.40;;;;;;4983838;28;20137;-15
2023/09/29 11:51:34;;;;;;;1.53;0.80;;;23.30;88.70;;;;;;5056590;28;20492;-16
2023/09/29 11:54:01;;;;;;;1.63;0.80;;;23.10;89.20;;;;;;4995201;28;20026;-16
2023/09/29 11:56:26;;;;;;;1.65;0.95;;;23.00;90.30;;;;;;4983313;28;20461;-16
2023/09/29 11:58:53;;;;;;;2.13;0.97;;;22.90;90.20;;;;;;4971245;28;20021;-16
2023/09/29 12:01:19;;;;;;;2.65;0.98;;;22.80;90.60;;;;;;4999146;28;20109;-15
2023/09/29 12:03:45;;;;;;;2.33;0.90;;;22.70;90.80;;;;;;4965773;28;20058;-16
2023/09/29 12:06:11;;;;;;;2.97;0.80;;;22.60;90.90;;;;;;4995647;28;20094;-15
2023/09/29 12:08:37;;;;;;;1.20;0.70;;;22.60;91.00;;;;;;4993966;28;20270;-16
2023/09/29 12:11:05;;;;;;;2.00;0.60;;;22.40;91.10;;;;;;4982760;28;20034;-15
2023/09/29 12:13:32;;;;;;;2.17;0.70;;;22.40;91.30;;;;;;4983182;28;20117;-16
2023/09/29 12:15:58;;;;;;;1.83;0.60;;;22.40;91.30;;;;;;4995062;28;20026;-16
2023/09/29 12:18:26;;;;;;;0.83;0.67;;;21.20;92.30;;;;;;4981887;28;20041;-15
2023/09/29 12:20:53;;;;;;;2.08;0.70;;;22.40;91.50;;;;;;4997596;28;20029;-16
2023/09/29 12:23:19;;;;;;;1.45;0.80;;;22.40;91.60;;;;;;4993232;28;20389;-15
2023/09/29 12:25:45;;;;;;;1.20;0.60;;;22.40;91.50;;;;;;5001723;28;20033;-16
2023/09/29 12:28:11;;;;;;;1.83;0.65;;;22.40;91.40;;;;;;4986077;28;20087;-15
2023/09/29 12:30:36;;;;;;;0.60;0.43;;;22.40;91.40;;;;;;4954594;28;20115;-16
2023/09/29 12:33:03;;;;;;;1.45;0.50;;;22.40;91.30;;;;;;4996945;28;20086;-15
2023/09/29 12:35:29;;;;;;;1.43;0.50;;;22.30;91.40;;;;;;5081646;27;20113;-16
2023/09/29 12:37:55;;;;;;;2.30;0.63;;;22.30;91.50;;;;;;4995539;28;20048;-16
2023/09/29 12:40:21;;;;;;;1.08;0.60;;;22.20;91.60;;;;;;4992896;28;20026;-14
2023/09/29 12:42:50;;;;;;;0.90;0.60;;;22.30;91.70;;;;;;4998754;28;20038;-15
2023/09/29 12:45:18;;;;;;;0.50;0.50;;;22.20;91.80;;;;;;4970687;28;20076;-14
2023/09/29 12:47:45;;;;;;;1.58;0.70;;;22.30;91.90;;;;;;4995881;28;20283;-16
2023/09/29 12:50:11;;;;;;;1.40;0.80;;;22.30;91.80;;;;;;4987736;28;20026;-15